Saltar para o conteúdo principal

Madeira, Areeiro

ID 1210973 · 32.7167, -16.9167 mapa

Última leitura · 2026-05-09 19:00 (Europe/Lisbon)

Temperatura
7.1 °C
Humidade
81 %
Pressão
Precipitação
0.0 mm
Radiação
1,241 W/m²
Velocidade do vento
30.2 km/h
Direcção do vento
NW · Noroeste

Histórico de 24 horas

Hora (Europe/Lisbon) Temperatura Humidade Pressão Chuva Vento Direcção
2026-05-09 19:00 7.1 °C 81 % 0.0 mm 30.2 km/h NW
2026-05-09 18:00 7.5 °C 82 % 0.0 mm 22.0 km/h NW
2026-05-09 17:00 8.0 °C 81 % 0.0 mm 18.4 km/h NW
2026-05-09 16:00 7.9 °C 87 % 0.0 mm 20.2 km/h NW
2026-05-09 15:00 8.7 °C 80 % 0.0 mm 20.5 km/h NW
2026-05-09 14:00 8.5 °C 84 % 0.0 mm 14.0 km/h NW
2026-05-09 13:00 9.3 °C 73 % 0.0 mm 12.2 km/h W
2026-05-09 12:00 8.9 °C 74 % 0.0 mm 12.6 km/h NW
2026-05-09 11:00 7.0 °C 81 % 0.0 mm 18.0 km/h NW
2026-05-09 10:00 6.3 °C 83 % 0.0 mm 15.1 km/h NW
2026-05-09 09:00 5.1 °C 92 % 0.0 mm 15.5 km/h NW
2026-05-09 08:00 4.7 °C 86 % 0.0 mm 21.6 km/h N
2026-05-09 07:00 4.6 °C 90 % 0.0 mm 21.6 km/h N
2026-05-09 06:00 4.9 °C 93 % 0.0 mm 25.9 km/h NW
2026-05-09 05:00 4.9 °C 94 % 0.0 mm 24.8 km/h NW
2026-05-09 04:00 4.9 °C 93 % 0.0 mm 27.0 km/h N
2026-05-09 03:00 4.8 °C 91 % 0.0 mm 26.6 km/h N
2026-05-09 02:00 4.9 °C 91 % 0.0 mm 34.6 km/h N
2026-05-09 01:00 4.8 °C 91 % 0.0 mm 38.9 km/h N
2026-05-09 00:00 4.9 °C 93 % 0.0 mm 47.9 km/h N
2026-05-08 23:00 5.0 °C 91 % 0.0 mm 41.8 km/h N
2026-05-08 22:00 5.3 °C 92 % 0.0 mm 40.7 km/h N
2026-05-08 21:00 5.3 °C 93 % 0.0 mm 43.9 km/h NW
2026-05-08 20:00 5.4 °C 95 % 0.9 mm 51.1 km/h NW